Time;durP1;ratioP1;P1;durP2;ratioP2;P2;SDS_P1;SDS_P2;PMS_P1;PMS_P2;Temp;Humidity;BMP_temperature;BMP_pressure;BME280_temperature;BME280_humidity;BME280_pressure;Samples;Min_cycle;Max_cycle;Signal;HPM_P1;HPM_P2
2021/01/11 05:57:07;;;;;;;33.43;17.87;;;;;;;-2.24;100.00;99227.16;1751716;79;21139;-56
2021/01/11 05:59:37;;;;;;;31.83;17.00;;;;;;;-2.23;100.00;99233.98;1765813;80;21177;-58
2021/01/11 06:02:07;;;;;;;34.60;18.17;;;;;;;-2.25;100.00;99232.45;1690308;81;21317;-64
2021/01/11 06:04:36;;;;;;;29.50;15.70;;;;;;;-2.26;100.00;99236.80;1739642;81;21186;-48
2021/01/11 06:07:05;;;;;;;31.23;16.50;;;;;;;-2.25;100.00;99237.61;1722583;82;21189;-58
2021/01/11 06:09:36;;;;;;;28.15;14.43;;;;;;;-2.27;100.00;99240.32;1728756;81;21150;-57
2021/01/11 06:12:07;;;;;;;28.67;15.40;;;;;;;-2.29;100.00;99241.39;1743691;81;21122;-56
2021/01/11 06:14:36;;;;;;;30.72;15.63;;;;;;;-2.31;100.00;99233.73;1758459;81;21171;-64
2021/01/11 06:17:05;;;;;;;31.90;17.07;;;;;;;-2.32;100.00;99247.59;1694818;81;21142;-60
2021/01/11 06:19:34;;;;;;;38.20;20.20;;;;;;;-2.29;100.00;99255.13;1744886;81;21184;-53
2021/01/11 06:22:05;;;;;;;32.03;16.00;;;;;;;-2.27;100.00;99253.70;1719690;83;21184;-56
2021/01/11 06:24:36;;;;;;;;;;;;;;;-2.25;100.00;99256.52;1713861;81;21162;-51
2021/01/11 06:27:16;;;;;;;29.97;14.70;;;;;;;-2.24;100.00;99252.98;1717830;82;20171;-50
2021/01/11 06:29:49;;;;;;;28.75;15.68;;;;;;;-2.21;100.00;99258.41;1671141;83;21173;-54
2021/01/11 06:32:21;;;;;;;31.10;15.60;;;;;;;-2.15;100.00;99257.45;1743760;81;21618;-58
2021/01/11 06:34:54;;;;;;;27.63;13.37;;;;;;;-2.12;100.00;99261.59;1724955;82;21581;-54
2021/01/11 06:37:33;;;;;;;29.67;14.33;;;;;;;-2.12;100.00;99263.32;1672173;83;21217;-55
2021/01/11 06:40:02;;;;;;;31.87;15.07;;;;;;;-2.10;100.00;99257.11;1721311;83;21218;-56
2021/01/11 06:42:32;;;;;;;39.77;22.93;;;;;;;-2.08;100.00;99264.27;1721214;83;21209;-54
2021/01/11 06:45:03;;;;;;;41.15;26.05;;;;;;;-1.96;100.00;99274.12;1721058;83;21627;-57
2021/01/11 06:47:34;;;;;;;32.40;17.50;;;;;;;-1.96;100.00;99274.12;1705697;83;21205;-58
2021/01/11 06:50:10;;;;;;;31.70;16.07;;;;;;;-1.84;100.00;99271.89;1757734;81;21775;-52
2021/01/11 06:52:39;;;;;;;32.53;17.03;;;;;;;-1.78;100.00;99269.30;1734238;81;21213;-60
2021/01/11 06:55:17;;;;;;;34.43;17.13;;;;;;;-1.70;99.79;99265.66;1678291;85;21748;-53
2021/01/11 06:57:48;;;;;;;54.17;36.03;;;;;;;-1.64;99.26;99271.64;1685656;84;21171;-54
2021/01/11 07:00:20;;;;;;;27.58;13.35;;;;;;;-1.61;97.17;99268.80;1721429;82;21213;-54
2021/01/11 07:02:50;;;;;;;28.50;14.03;;;;;;;-1.61;97.17;99268.80;1705994;83;21159;-54
2021/01/11 07:05:38;;;;;;;34.13;18.10;;;;;;;-1.66;96.76;99271.77;1707650;82;21133;-55
2021/01/11 07:08:12;;;;;;;31.90;19.17;;;;;;;-1.69;96.49;99269.41;1717536;82;21192;-52
2021/01/11 07:10:44;;;;;;;27.03;13.63;;;;;;;-1.67;96.72;99273.16;1705559;83;21183;-55
2021/01/11 07:13:23;;;;;;;32.53;16.17;;;;;;;-1.64;96.05;99274.23;1701214;83;21174;-56
2021/01/11 07:15:57;;;;;;;31.53;17.03;;;;;;;-1.59;96.03;99282.45;1709770;83;21199;-54
2021/01/11 07:18:44;;;;;;;29.17;14.30;;;;;;;-1.52;95.46;99275.84;1721408;83;21239;-49
2021/01/11 07:21:18;;;;;;;29.00;15.97;;;;;;;-1.48;94.98;99285.02;1713248;83;21156;-52
2021/01/11 07:23:50;;;;;;;28.13;14.47;;;;;;;-1.47;94.54;99288.42;1716184;83;21166;-58
2021/01/11 07:26:22;;;;;;;27.93;14.87;;;;;;;-1.41;94.40;99282.77;1720485;83;21616;-60
2021/01/11 07:29:00;;;;;;;32.70;17.20;;;;;;;-1.34;93.96;99291.20;1701944;83;21105;-56
2021/01/11 07:31:34;;;;;;;35.37;18.97;;;;;;;-1.25;94.01;99297.91;1710628;83;21746;-55
2021/01/11 07:34:10;;;;;;;29.63;15.63;;;;;;;-1.19;93.51;99292.23;1698746;83;21167;-57
2021/01/11 07:36:46;;;;;;;38.00;19.23;;;;;;;-1.14;93.42;99291.41;1713152;83;21196;-52
2021/01/11 07:39:27;;;;;;;33.77;17.23;;;;;;;-1.04;93.01;99288.88;1718434;83;21272;-59
2021/01/11 07:42:06;;;;;;;41.67;22.47;;;;;;;-0.98;92.94;99289.20;1721171;83;21326;-53
2021/01/11 07:44:37;;;;;;;39.17;23.27;;;;;;;-0.98;92.27;99288.38;1707311;83;21229;-50
2021/01/11 07:47:16;;;;;;;37.67;20.20;;;;;;;-0.96;92.58;99291.69;1721631;83;21213;-47
2021/01/11 07:49:52;;;;;;;40.60;21.53;;;;;;;-0.92;92.27;99284.00;1715569;83;21296;-51
2021/01/11 07:52:21;;;;;;;35.20;19.50;;;;;;;-0.88;91.69;99291.40;1705134;83;21624;-49
2021/01/11 07:54:59;;;;;;;32.03;15.37;;;;;;;-0.83;91.20;99286.67;1719822;83;21175;-51
2021/01/11 07:57:29;;;;;;;32.20;15.10;;;;;;;-0.78;90.79;99295.84;1729943;82;21219;-50
2021/01/11 08:00:11;;;;;;;28.60;14.50;;;;;;;-0.68;90.92;99289.80;1753563;81;21606;-54
2021/01/11 08:02:47;;;;;;;30.37;14.80;;;;;;;-0.57;90.08;99286.33;1691539;83;21357;-56
2021/01/11 08:05:26;;;;;;;28.53;15.60;;;;;;;-0.55;88.95;99285.72;1696286;84;21162;-51
2021/01/11 08:08:06;;;;;;;31.43;16.33;;;;;;;-0.52;88.71;99288.52;1684902;84;21430;-50
2021/01/11 08:10:35;;;;;;;29.90;15.33;;;;;;;-0.52;89.10;99285.92;1687323;84;21173;-56
2021/01/11 08:13:06;;;;;;;30.90;17.90;;;;;;;-0.51;88.03;99294.89;1680075;84;21206;-58
2021/01/11 08:15:35;;;;;;;30.48;16.77;;;;;;;-0.51;87.93;99300.06;1700965;84;21220;-55
2021/01/11 08:18:05;;;;;;;41.83;21.30;;;;;;;-0.45;87.82;99291.79;1713355;82;21190;-54
2021/01/11 08:20:34;;;;;;;186.40;80.80;;;;;;;-0.34;87.89;99298.20;1718314;82;21122;-56
2021/01/11 08:23:08;;;;;;;125.37;56.87;;;;;;;-0.20;87.73;99297.03;1747927;82;21594;-57
2021/01/11 08:25:50;;;;;;;95.80;43.97;;;;;;;-0.08;86.78;99292.11;1711188;80;21390;-52
2021/01/11 08:28:21;;;;;;;51.47;26.23;;;;;;;-0.06;85.09;99294.13;1685221;79;21239;-49
2021/01/11 08:30:51;;;;;;;143.65;63.75;;;;;;;-0.13;84.82;99302.52;1653796;84;21234;-50
2021/01/11 08:33:21;;;;;;;45.57;24.23;;;;;;;-0.13;84.69;99302.52;1655713;85;21566;-45
2021/01/11 08:35:51;;;;;;;33.77;16.57;;;;;;;-0.09;84.95;99301.32;1657807;84;21203;-51
2021/01/11 08:38:20;;;;;;;38.30;28.87;;;;;;;0.01;84.07;99300.08;1660432;85;21190;-49
2021/01/11 08:40:50;;;;;;;33.03;17.60;;;;;;;0.05;83.61;99300.14;1660354;86;21186;-51
2021/01/11 08:43:20;;;;;;;38.73;25.53;;;;;;;0.13;83.64;99304.22;1660654;86;21317;-51
2021/01/11 08:45:53;;;;;;;32.63;17.73;;;;;;;0.19;82.96;99295.44;1659902;86;21652;-50
2021/01/11 08:48:25;;;;;;;32.20;18.40;;;;;;;0.24;82.05;99297.17;1658721;85;21182;-52
2021/01/11 08:54:06;;;;;;;40.43;25.03;;;;;;;0.26;81.79;99295.73;1680256;82;21286;-58
2021/01/11 08:56:42;;;;;;;34.00;16.23;;;;;;;0.36;81.23;99297.08;1635648;85;21203;-59
2021/01/11 08:59:11;;;;;;;35.37;17.70;;;;;;;0.39;80.32;99290.31;1683446;85;21315;-56
2021/01/11 09:01:44;;;;;;;33.37;18.23;;;;;;;0.39;79.86;99291.61;1693006;83;21201;-54
2021/01/11 09:04:14;;;;;;;;;;;;;;;0.37;79.42;99285.74;1725199;83;21198;-56
2021/01/11 09:06:47;;;;;;;42.23;21.37;;;;;;;0.38;79.32;99284.30;1715883;83;20216;-55
2021/01/11 09:09:20;;;;;;;51.97;26.10;;;;;;;0.30;79.06;99288.05;1673208;83;21209;-57
2021/01/11 09:11:49;;;;;;;39.13;19.70;;;;;;;0.19;79.07;99283.78;1665969;86;21201;-55
2021/01/11 09:14:19;;;;;;;29.40;15.73;;;;;;;0.19;79.06;99288.14;1651063;85;21212;-57
2021/01/11 09:16:50;;;;;;;37.87;19.53;;;;;;;0.19;79.29;99290.26;1721742;83;21211;-56
2021/01/11 09:19:21;;;;;;;28.90;15.25;;;;;;;0.28;79.50;99292.52;1722355;83;21150;-66
2021/01/11 09:22:18;;;;;;;;;;;;;;;0.38;79.13;99287.38;1724955;83;21177;-59
2021/01/11 09:24:47;;;;;;;56.00;20.90;;;;;;;0.35;78.39;99284.59;1690069;83;20215;-56
2021/01/11 09:27:17;;;;;;;54.50;21.17;;;;;;;0.41;78.72;99292.31;1675258;83;21731;-55
2021/01/11 09:29:49;;;;;;;34.35;16.55;;;;;;;0.47;78.44;99290.01;1679523;83;21175;-56
2021/01/11 09:32:20;;;;;;;36.73;20.27;;;;;;;0.52;78.74;99282.66;1690023;83;21197;-56
2021/01/11 09:34:50;;;;;;;35.95;18.27;;;;;;;0.49;78.57;99282.91;1684130;84;21301;-57
2021/01/11 09:37:21;;;;;;;38.37;19.37;;;;;;;0.44;78.48;99285.55;1684310;85;21578;-56
2021/01/11 09:39:50;;;;;;;36.23;15.03;;;;;;;0.46;78.55;99284.48;1641180;87;21379;-53
2021/01/11 09:42:19;;;;;;;28.97;13.73;;;;;;;0.51;77.84;99279.69;1646817;87;21224;-56
2021/01/11 09:44:49;;;;;;;25.77;13.20;;;;;;;0.58;76.83;99285.67;1631547;84;21183;-55
2021/01/11 09:47:18;;;;;;;41.47;19.30;;;;;;;0.56;77.15;99278.48;1645971;86;21214;-57
2021/01/11 09:49:49;;;;;;;39.05;17.85;;;;;;;0.55;77.35;99281.55;1646116;87;21202;-56
2021/01/11 09:52:18;;;;;;;29.77;14.30;;;;;;;0.61;78.00;99277.13;1653912;85;21221;-57
2021/01/11 09:54:50;;;;;;;34.25;15.85;;;;;;;0.75;78.05;99276.75;1690646;85;21138;-58
2021/01/11 09:57:19;;;;;;;30.00;15.27;;;;;;;0.89;78.01;99274.70;1703262;83;21172;-56
2021/01/11 09:59:49;;;;;;;234.67;49.40;;;;;;;1.01;77.54;99277.51;1698633;84;21660;-56
2021/01/11 10:02:18;;;;;;;33.00;16.93;;;;;;;1.04;76.48;99276.77;1712813;83;21269;-55
2021/01/11 10:04:48;;;;;;;30.53;16.37;;;;;;;1.01;75.69;99274.91;1693577;85;21649;-56
2021/01/11 10:07:18;;;;;;;28.07;15.03;;;;;;;0.91;75.91;99268.41;1667634;85;21347;-56
2021/01/11 10:09:49;;;;;;;34.20;19.70;;;;;;;0.85;77.47;99265.54;1670672;86;21228;-52
2021/01/11 10:12:20;;;;;;;30.57;17.13;;;;;;;0.91;77.74;99259.80;1670503;86;21213;-54
2021/01/11 10:14:50;;;;;;;45.67;22.60;;;;;;;1.08;77.13;99253.92;1632985;83;21126;-57
2021/01/11 10:17:19;;;;;;;30.77;15.47;;;;;;;1.25;76.86;99261.02;1693965;85;21202;-57
2021/01/11 10:19:51;;;;;;;27.90;14.45;;;;;;;1.40;77.43;99254.12;1723616;83;21209;-58
2021/01/11 10:22:20;;;;;;;26.37;13.37;;;;;;;1.48;77.97;99247.73;1694286;85;21779;-58
2021/01/11 10:24:50;;;;;;;29.03;14.43;;;;;;;1.55;76.43;99251.43;1694037;85;21856;-57
2021/01/11 10:27:19;;;;;;;42.30;17.97;;;;;;;1.50;75.17;99253.14;1694378;85;21592;-58
2021/01/11 10:29:48;;;;;;;32.20;15.53;;;;;;;1.48;74.52;99250.33;1693939;85;21386;-58
2021/01/11 10:32:18;;;;;;;41.23;25.53;;;;;;;1.36;74.15;99255.34;1694131;85;21210;-57
2021/01/11 10:34:49;;;;;;;31.20;16.77;;;;;;;1.34;75.14;99250.30;1712179;83;21180;-58
2021/01/11 10:37:18;;;;;;;29.18;15.32;;;;;;;1.40;75.35;99247.14;1699203;84;21199;-58
2021/01/11 10:39:48;;;;;;;31.67;17.10;;;;;;;1.42;74.04;99243.91;1699093;84;21223;-58
2021/01/11 10:42:17;;;;;;;32.07;17.87;;;;;;;1.27;73.43;99255.23;1699486;84;21639;-60
2021/01/11 10:44:46;;;;;;;28.03;15.57;;;;;;;1.22;73.73;99255.30;1705122;83;21226;-57
2021/01/11 10:47:15;;;;;;;27.03;14.57;;;;;;;1.24;74.18;99246.88;1693319;85;21372;-58
2021/01/11 10:49:46;;;;;;;27.42;14.47;;;;;;;1.21;73.92;99238.91;1693581;83;21274;-57
2021/01/11 10:52:16;;;;;;;29.10;15.47;;;;;;;1.21;74.26;99238.91;1723629;83;21278;-57
2021/01/11 10:54:47;;;;;;;28.98;15.28;;;;;;;1.15;74.33;99242.06;1707680;83;21404;-58
2021/01/11 10:57:16;;;;;;;32.07;19.40;;;;;;;1.19;75.63;99233.48;1689924;85;21496;-57
2021/01/11 10:59:48;;;;;;;30.75;16.97;;;;;;;1.25;75.18;99235.53;1685438;84;21429;-57
2021/01/11 11:02:17;;;;;;;29.77;16.00;;;;;;;1.22;74.86;99233.23;1687479;84;21248;-57
2021/01/11 11:04:47;;;;;;;32.50;16.57;;;;;;;1.22;74.58;99236.64;1693313;85;21656;-58
2021/01/11 11:07:16;;;;;;;30.80;16.83;;;;;;;1.21;75.11;99233.71;1693290;85;21174;-58
2021/01/11 11:09:46;;;;;;;32.53;18.43;;;;;;;1.26;76.28;99235.87;1693077;85;21166;-58
2021/01/11 11:12:15;;;;;;;32.10;18.53;;;;;;;1.31;76.26;99234.49;1688325;84;21795;-49
2021/01/11 11:14:44;;;;;;;32.03;16.23;;;;;;;1.38;77.28;99240.42;1680435;84;21204;-54
2021/01/11 11:17:14;;;;;;;35.00;18.90;;;;;;;1.40;76.44;99238.05;1692741;84;21568;-57
2021/01/11 11:19:43;;;;;;;34.37;18.97;;;;;;;1.47;75.71;99238.30;1692969;84;21173;-53
2021/01/11 11:22:14;;;;;;;31.37;16.63;;;;;;;1.54;75.27;99228.98;1709638;83;21183;-60
2021/01/11 11:24:43;;;;;;;27.58;15.75;;;;;;;1.64;75.00;99229.78;1699810;83;21258;-67
2021/01/11 11:27:13;;;;;;;32.37;15.20;;;;;;;1.68;74.31;99227.24;1692076;85;21569;-63
2021/01/11 11:29:42;;;;;;;32.53;17.47;;;;;;;1.72;74.58;99230.36;1718834;83;21781;-54
2021/01/11 11:32:12;;;;;;;33.27;18.80;;;;;;;1.64;73.96;99222.47;1718749;83;21873;-51
2021/01/11 11:34:45;;;;;;;31.53;17.47;;;;;;;1.64;74.14;99230.27;1678167;84;21172;-58
2021/01/11 11:37:15;;;;;;;41.23;16.80;;;;;;;1.70;73.79;99228.39;1693163;85;21219;-54
2021/01/11 11:39:47;;;;;;;33.77;15.63;;;;;;;1.77;73.33;99219.88;1693013;84;21607;-60
2021/01/11 11:42:17;;;;;;;33.97;16.70;;;;;;;1.82;72.90;99220.75;1659299;86;21373;-63
2021/01/11 11:44:49;;;;;;;31.60;15.73;;;;;;;1.88;72.57;99224.56;1643022;86;21152;-55
2021/01/11 11:47:18;;;;;;;29.47;16.53;;;;;;;1.94;72.14;99231.30;1647210;86;21669;-55
2021/01/11 11:49:49;;;;;;;36.13;18.12;;;;;;;1.96;71.50;99215.58;1635747;85;21412;-56
2021/01/11 11:52:19;;;;;;;33.17;19.13;;;;;;;1.98;71.14;99216.25;1634393;88;21580;-56
2021/01/11 11:54:50;;;;;;;37.60;20.90;;;;;;;2.03;71.27;99220.53;1643315;87;21208;-54
2021/01/11 11:57:20;;;;;;;37.53;20.73;;;;;;;2.07;70.92;99226.61;1691182;85;21177;-61
2021/01/11 11:59:51;;;;;;;47.00;25.80;;;;;;;2.09;70.60;99224.67;1689878;85;21200;-51
2021/01/11 12:02:21;;;;;;;38.78;22.62;;;;;;;2.11;70.36;99226.64;1710174;83;21165;-56
2021/01/11 12:04:51;;;;;;;44.98;24.47;;;;;;;2.11;70.12;99221.44;1684339;85;21642;-58
2021/01/11 12:07:23;;;;;;;46.73;25.10;;;;;;;2.05;70.00;99220.72;1667810;85;21220;-61
2021/01/11 12:09:54;;;;;;;42.65;25.60;;;;;;;1.96;70.61;99215.58;1668953;86;21231;-58
2021/01/11 12:12:23;;;;;;;51.23;28.37;;;;;;;1.93;70.89;99214.55;1690732;85;21649;-59
2021/01/11 12:14:54;;;;;;;40.28;23.73;;;;;;;1.91;70.75;99215.19;1679099;83;21432;-58
2021/01/11 12:17:26;;;;;;;41.43;23.90;;;;;;;1.90;70.69;99214.38;1678573;85;21186;-52
2021/01/11 12:19:56;;;;;;;38.63;23.62;;;;;;;1.91;70.37;99209.50;1680231;85;21252;-59
2021/01/11 12:22:26;;;;;;;40.77;23.47;;;;;;;1.84;70.26;99213.16;1691663;85;21358;-62
2021/01/11 12:24:59;;;;;;;42.20;23.60;;;;;;;1.82;70.32;99204.67;1656047;86;21171;-60
2021/01/11 12:27:34;;;;;;;39.73;24.07;;;;;;;1.85;70.28;99204.40;1673961;86;21209;-60
2021/01/11 12:30:05;;;;;;;46.90;23.53;;;;;;;1.84;69.78;99210.56;1683346;83;21185;-56
2021/01/11 12:32:39;;;;;;;;;;;;;;;1.81;69.73;99217.82;1666612;86;21316;-59
2021/01/11 12:35:09;;;;;;;48.70;27.53;;;;;;;1.81;69.95;99217.34;1711498;83;20176;-59
2021/01/11 12:37:41;;;;;;;44.47;25.70;;;;;;;1.84;70.32;99213.65;1675124;84;21191;-58
2021/01/11 12:40:13;;;;;;;52.10;28.93;;;;;;;1.88;70.13;99206.36;1632711;86;21192;-58
2021/01/11 12:42:44;;;;;;;49.83;26.07;;;;;;;1.86;69.53;99213.83;1674342;85;21665;-57
2021/01/11 12:45:15;;;;;;;46.13;26.77;;;;;;;1.80;69.78;99218.30;1673400;85;21371;-53
2021/01/11 12:47:44;;;;;;;57.50;36.38;;;;;;;1.81;70.43;99212.14;1690215;85;21158;-58
2021/01/11 12:50:14;;;;;;;63.10;42.93;;;;;;;1.83;70.46;99219.30;1690724;83;21658;-56
2021/01/11 12:52:47;;;;;;;48.55;31.68;;;;;;;1.85;70.77;99220.00;1690159;85;21214;-60
2021/01/11 12:55:17;;;;;;;44.10;25.07;;;;;;;1.91;70.69;99216.48;1682138;85;21681;-61
2021/01/11 12:57:46;;;;;;;43.07;26.40;;;;;;;1.94;70.20;99219.60;1680031;85;21204;-60
2021/01/11 13:00:18;;;;;;;50.13;27.57;;;;;;;1.96;70.12;99217.70;1691794;84;21166;-58
2021/01/11 13:02:47;;;;;;;47.27;27.77;;;;;;;2.00;70.03;99222.11;1691116;84;21390;-62
2021/01/11 13:05:17;;;;;;;47.13;26.93;;;;;;;2.01;69.87;99227.19;1690890;85;21215;-62
2021/01/11 13:07:46;;;;;;;51.03;28.73;;;;;;;1.98;69.96;99224.86;1691100;85;21712;-57
2021/01/11 13:10:16;;;;;;;47.80;27.50;;;;;;;1.99;70.26;99227.80;1677354;84;21267;-61
2021/01/11 13:12:47;;;;;;;50.38;26.52;;;;;;;2.01;70.00;99229.79;1663114;86;22159;-60
2021/01/11 13:15:17;;;;;;;44.00;25.30;;;;;;;2.01;69.61;99226.38;1672596;85;21186;-63
2021/01/11 13:17:48;;;;;;;43.23;25.40;;;;;;;2.01;69.69;99221.98;1690448;84;21750;-58
2021/01/11 13:20:21;;;;;;;43.47;25.20;;;;;;;1.95;69.08;99223.02;1699315;83;21609;-58
2021/01/11 13:22:50;;;;;;;45.77;26.77;;;;;;;1.84;69.38;99221.45;1696024;83;22228;-54
2021/01/11 13:25:27;;;;;;;44.63;26.77;;;;;;;1.81;70.00;99226.44;1705641;83;21322;-59
2021/01/11 13:27:51;;;;;;;47.80;28.50;;;;;;;1.85;70.03;99217.88;1708876;83;21602;-62
2021/01/11 13:30:21;;;;;;;70.53;33.93;;;;;;;1.85;69.83;99223.08;1712958;83;21621;-57
2021/01/11 13:32:54;;;;;;;71.67;37.65;;;;;;;1.79;69.52;99223.66;1693484;83;21963;-58
2021/01/11 13:35:23;;;;;;;55.33;32.80;;;;;;;1.69;69.95;99218.96;1688219;85;21166;-57
2021/01/11 13:37:54;;;;;;;63.13;35.08;;;;;;;1.65;70.37;99212.41;1688561;85;21177;-60
2021/01/11 13:40:25;;;;;;;57.10;34.10;;;;;;;1.56;71.10;99215.38;1654785;86;21213;-55
2021/01/11 13:42:55;;;;;;;54.03;33.17;;;;;;;1.54;71.37;99222.48;1642526;87;21158;-58
2021/01/11 13:45:26;;;;;;;55.23;30.13;;;;;;;1.58;71.75;99214.75;1691917;83;21632;-58
2021/01/11 13:47:57;;;;;;;49.30;28.60;;;;;;;1.64;71.43;99223.28;1679538;84;21343;-60
2021/01/11 13:50:26;;;;;;;51.50;27.27;;;;;;;1.59;71.46;99220.28;1689648;83;21174;-60
2021/01/11 13:52:57;;;;;;;52.10;28.40;;;;;;;1.58;71.71;99214.75;1690927;85;21357;-57
2021/01/11 13:55:29;;;;;;;56.43;31.20;;;;;;;1.59;72.10;99219.80;1693795;83;21234;-61
2021/01/11 13:58:00;;;;;;;53.10;30.15;;;;;;;1.64;71.99;99219.86;1693611;84;21130;-58
2021/01/11 14:00:31;;;;;;;50.63;29.53;;;;;;;1.65;71.69;99216.30;1694872;83;21165;-59
2021/01/11 14:03:03;;;;;;;52.77;29.03;;;;;;;1.58;71.23;99214.27;1712951;83;21192;-59
2021/01/11 14:05:38;;;;;;;50.73;27.77;;;;;;;1.52;71.22;99220.52;1698542;84;21232;-58
2021/01/11 14:08:11;;;;;;;48.97;27.43;;;;;;;1.49;71.93;99209.09;1697480;84;21204;-59
2021/01/11 14:10:42;;;;;;;57.33;32.90;;;;;;;1.50;72.84;99204.26;1667406;85;21725;-60
2021/01/11 14:13:13;;;;;;;54.73;30.43;;;;;;;1.50;72.24;99211.57;1687236;85;21143;-57
2021/01/11 14:15:43;;;;;;;53.50;30.17;;;;;;;1.45;72.41;99209.88;1673878;85;21370;-57
2021/01/11 14:18:14;;;;;;;45.80;25.60;;;;;;;1.41;72.96;99207.69;1668897;86;21140;-58
2021/01/11 14:20:44;;;;;;;46.57;27.23;;;;;;;1.40;73.12;99204.27;1664045;86;21216;-58
2021/01/11 14:23:13;;;;;;;49.87;28.90;;;;;;;1.40;73.02;99199.56;1682945;84;21184;-57
2021/01/11 14:25:43;;;;;;;47.83;25.63;;;;;;;1.43;73.53;99205.76;1667382;86;21152;-55
2021/01/11 14:28:12;;;;;;;42.10;23.13;;;;;;;1.45;73.27;99199.97;1637514;86;21197;-55
2021/01/11 14:30:41;;;;;;;43.47;23.37;;;;;;;1.44;73.50;99197.03;1612704;89;21223;-58
2021/01/11 14:33:12;;;;;;;;;;;;;;;1.46;73.72;99201.59;1672639;83;21217;-58
2021/01/11 14:35:42;;;;;;;37.27;19.00;;;;;;;1.47;73.51;99197.55;1675874;84;20180;-59
2021/01/11 14:38:12;;;;;;;39.90;21.53;;;;;;;1.46;73.12;99197.22;1665112;86;21194;-60
2021/01/11 14:40:42;;;;;;;41.10;20.97;;;;;;;1.42;72.91;99195.03;1666447;83;21229;-60
2021/01/11 14:43:12;;;;;;;40.07;22.50;;;;;;;1.36;73.41;99196.41;1664214;85;21178;-61
2021/01/11 14:45:42;;;;;;;;;;;;;;;1.37;73.66;99199.34;1718886;83;21208;-61
2021/01/11 14:48:12;;;;;;;56.10;34.03;;;;;;;1.38;73.02;99193.67;1678367;84;20295;-59
2021/01/11 14:50:49;;;;;;;112.53;63.50;;;;;;;1.25;72.97;99189.59;1665334;86;21225;-61
2021/01/11 14:53:17;;;;;;;107.13;65.47;;;;;;;1.20;72.93;99188.38;1705244;83;21172;-60
2021/01/11 14:55:48;;;;;;;71.70;33.63;;;;;;;1.13;73.06;99182.93;1723458;83;21615;-59
2021/01/11 14:58:20;;;;;;;65.10;33.77;;;;;;;1.05;73.32;99182.34;1698904;83;21152;-59
